Five Finger, AK current weather conditions

sailwx.info

Wind from 180 at 22 knots gusting 26

Air temperature 13.4° C

Last reported at 2020-Aug-05 03:00 UTC.
Time now 2020-Aug-05 04:20 UTC

Location: N 57°16' W 133°38'.
View on Google Maps.

See reports from other nearby stations

  
Tides and Currents Weather Stations Pressure Air Temp Water Temp Dewpoint Dewpoint Depression Visibility Wind Speed Wind Dir Waves Ship Positions
date/time (UTC)wind fromknots sea level pressurealtimeterstation pressurevisibilityair tempwater tempwave heightnotes
2020-Aug-05 03:00 180 22 gusting 26 13.4
2020-Aug-05 02:00 140 14 gusting 18 15.3
2020-Aug-05 01:00 140 20 gusting 21 15.3
2020-Aug-05 00:00 140 14 gusting 17 15.2
2020-Aug-04 23:00 140 13 gusting 14 14.8
2020-Aug-04 22:00 140 13 gusting 15 13.9
2020-Aug-04 21:00 150 19 gusting 20 14.2
2020-Aug-04 20:00 150 19 gusting 20 13.7
2020-Aug-04 19:00 150 21 gusting 25 13.6
2020-Aug-04 18:00 150 17 gusting 20 14.2
2020-Aug-04 17:00 160 8 gusting 13 13.9
2020-Aug-04 16:00 140 17 gusting 19 14.2
2020-Aug-04 15:00 150 13 gusting 18 14.3
2020-Aug-04 14:00 130 9 gusting 13 13.7
2020-Aug-04 13:00 050 1 gusting 2 12.8
2020-Aug-04 12:00 070 0 gusting 1 13.4
2020-Aug-04 11:00 060 4 gusting 5 13.0
2020-Aug-04 10:00 110 6 gusting 6 12.2
2020-Aug-04 09:00 150 13 gusting 14 12.3
2020-Aug-04 08:00 140 17 gusting 19 13.1
2020-Aug-04 07:00 150 13 gusting 17 13.5
2020-Aug-04 06:00 150 13 gusting 18 14.2
2020-Aug-04 05:00 150 13 gusting 18 14.0
2020-Aug-04 04:00 150 9 gusting 13 14.3
2020-Aug-04 03:00 150 12 gusting 15 14.2
2020-Aug-04 02:00 160 13 gusting 18 14.5
2020-Aug-04 01:00 150 13 gusting 17 14.6
2020-Aug-04 00:00 160 7 gusting 12 14.6
2020-Aug-03 23:00 130 4 gusting 5 13.6
2020-Aug-03 22:00 180 2 gusting 4 13.1
2020-Aug-03 21:00 080 7 gusting 8 13.5
2020-Aug-03 20:00 120 7 gusting 8 13.2
2020-Aug-03 19:00 150 11 gusting 12 12.6
2020-Aug-03 18:00 150 7 gusting 13 12.0
2020-Aug-03 17:00 150 6 gusting 7 12.6
2020-Aug-03 16:00 070 0 gusting 1 12.3
2020-Aug-03 15:00 170 6 gusting 8 11.9
2020-Aug-03 14:00 160 2 gusting 5 12.7
2020-Aug-03 13:00 170 7 gusting 9 12.8
2020-Aug-03 12:00 130 2 gusting 4 12.7
2020-Aug-03 11:00 140 1 gusting 2 12.3
2020-Aug-03 10:00 190 6 gusting 7 12.2
2020-Aug-03 09:00 160 8 gusting 11 13.2
2020-Aug-03 08:00 180 9 gusting 11 11.7
2020-Aug-03 07:00 190 6 gusting 7 11.4
2020-Aug-03 06:00 190 6 gusting 6 12.1
2020-Aug-03 05:00 220 7 gusting 7 12.1
2020-Aug-03 04:00 12.1